createdAt,value
2022-09-13T00:01:31.093Z,24.05
2022-09-13T00:03:58.479Z,24.03
2022-09-13T00:06:25.807Z,23.95
2022-09-13T00:08:54.264Z,23.96
2022-09-13T00:11:25.918Z,23.96
2022-09-13T00:13:54.207Z,23.99
2022-09-13T00:16:25.899Z,23.99
2022-09-13T00:18:56.080Z,24.00
2022-09-13T00:21:23.744Z,23.97
2022-09-13T00:23:51.712Z,23.95
2022-09-13T00:26:20.837Z,23.93
2022-09-13T00:28:51.859Z,23.93
2022-09-13T00:31:19.654Z,23.93
2022-09-13T00:33:49.797Z,23.85
2022-09-13T00:36:17.008Z,23.86
2022-09-13T00:38:46.497Z,23.80
2022-09-13T00:41:14.922Z,23.52
2022-09-13T00:43:45.425Z,23.64
2022-09-13T00:46:35.054Z,23.64
2022-09-13T00:49:12.279Z,23.68
2022-09-13T00:51:39.901Z,23.50
2022-09-13T00:54:26.436Z,23.60
2022-09-13T00:56:54.787Z,23.67
2022-09-13T00:59:26.007Z,23.58
2022-09-13T01:01:54.067Z,23.64
2022-09-13T01:04:21.618Z,23.68
2022-09-13T01:06:49.169Z,23.65
2022-09-13T01:09:16.393Z,23.72
2022-09-13T01:11:50.740Z,23.71
2022-09-13T01:14:18.280Z,23.67
2022-09-13T01:16:47.902Z,23.67
2022-09-13T01:19:17.751Z,23.65
2022-09-13T01:22:03.673Z,23.56
2022-09-13T01:24:36.595Z,23.57
2022-09-13T01:27:22.787Z,22.86
2022-09-13T01:30:02.329Z,23.16
2022-09-13T01:32:38.832Z,23.34
2022-09-13T01:35:09.287Z,23.35
2022-09-13T01:37:43.825Z,23.15
2022-09-13T01:40:14.269Z,23.22
2022-09-13T01:42:48.996Z,23.28
2022-09-13T01:45:26.013Z,23.33
2022-09-13T01:48:20.124Z,23.05
2022-09-13T01:51:04.715Z,22.99
2022-09-13T01:53:39.665Z,23.12
2022-09-13T01:56:11.049Z,23.18
2022-09-13T01:58:40.436Z,23.21
2022-09-13T02:01:15.282Z,22.83
2022-09-13T02:03:55.772Z,22.86
2022-09-13T02:06:26.937Z,22.92
2022-09-13T02:08:54.816Z,23.01
2022-09-13T02:11:24.020Z,23.08
2022-09-13T02:14:03.523Z,23.11
2022-09-13T02:16:38.890Z,23.11
2022-09-13T02:19:13.668Z,23.14
2022-09-13T02:21:44.578Z,22.98
2022-09-13T02:24:32.071Z,23.07
2022-09-13T02:27:00.136Z,23.07
2022-09-13T02:29:31.042Z,23.00
2022-09-13T02:32:06.598Z,23.01
2022-09-13T02:34:39.082Z,22.77
2022-09-13T02:37:08.888Z,22.92
2022-09-13T02:39:36.574Z,22.88
2022-09-13T02:42:04.993Z,22.88
2022-09-13T02:44:36.477Z,22.99
2022-09-13T02:47:10.543Z,22.78
2022-09-13T02:49:41.153Z,22.70
2022-09-13T02:52:08.486Z,22.65
2022-09-13T02:54:47.645Z,22.74
2022-09-13T02:57:18.522Z,22.63
2022-09-13T02:59:46.630Z,22.68
2022-09-13T03:02:14.599Z,22.60
2022-09-13T03:04:51.621Z,22.52
2022-09-13T03:07:43.331Z,22.69
2022-09-13T03:10:17.901Z,22.83
2022-09-13T03:12:54.423Z,22.91
2022-09-13T03:15:40.818Z,22.92
2022-09-13T03:18:27.108Z,22.86
2022-09-13T03:21:03.370Z,22.65
2022-09-13T03:23:39.048Z,22.59
2022-09-13T03:26:18.780Z,22.52
2022-09-13T03:29:07.219Z,22.46
2022-09-13T03:31:42.151Z,22.57
2022-09-13T03:34:19.633Z,22.58
2022-09-13T03:36:55.918Z,22.59
2022-09-13T03:39:26.617Z,22.67
2022-09-13T03:42:01.092Z,22.69
2022-09-13T03:44:54.336Z,22.67
2022-09-13T03:47:24.959Z,22.76
2022-09-13T03:49:56.239Z,22.62
2022-09-13T03:52:35.657Z,22.58
2022-09-13T03:55:07.297Z,22.48
2022-09-13T03:57:43.491Z,22.42
2022-09-13T04:00:14.240Z,22.41
2022-09-13T04:03:07.248Z,22.50
2022-09-13T04:05:37.478Z,22.49
2022-09-13T04:08:13.877Z,22.53
2022-09-13T04:10:53.018Z,22.52
2022-09-13T04:13:27.232Z,22.39
2022-09-13T04:16:06.788Z,22.29
2022-09-13T04:18:56.833Z,21.86
2022-09-13T04:21:32.056Z,21.87
2022-09-13T04:24:02.538Z,22.01
2022-09-13T04:26:40.845Z,22.16
2022-09-13T04:29:14.319Z,22.38
2022-09-13T04:31:45.378Z,22.09
2022-09-13T04:34:21.353Z,22.12
2022-09-13T04:36:54.892Z,22.15
2022-09-13T04:39:30.470Z,22.20
2022-09-13T04:42:05.011Z,22.05
2022-09-13T04:44:37.511Z,21.99
2022-09-13T04:47:10.155Z,21.72
2022-09-13T04:49:44.061Z,21.76
2022-09-13T04:52:17.123Z,22.08
2022-09-13T04:55:01.944Z,22.30
2022-09-13T04:57:35.968Z,22.26
2022-09-13T05:00:10.008Z,22.32
2022-09-13T05:02:41.841Z,22.14
2022-09-13T05:05:15.638Z,21.73
2022-09-13T05:08:10.021Z,21.79
2022-09-13T05:10:45.602Z,22.04
2022-09-13T05:13:16.457Z,22.13
2022-09-13T05:15:48.144Z,22.17
2022-09-13T05:21:12.030Z,21.94
2022-09-13T05:24:00.823Z,22.02
2022-09-13T05:26:34.261Z,22.23
2022-09-13T05:29:01.832Z,22.15
2022-09-13T05:31:30.886Z,22.21
2022-09-13T05:34:03.355Z,22.33
2022-09-13T05:36:31.546Z,22.23
2022-09-13T05:39:33.553Z,22.31
2022-09-13T05:42:01.116Z,22.30
2022-09-13T05:47:20.308Z,22.08
2022-09-13T05:50:10.288Z,22.04
2022-09-13T05:53:00.937Z,22.21
2022-09-13T05:55:37.123Z,22.05
2022-09-13T05:58:07.697Z,21.78
2022-09-13T06:00:38.432Z,21.68
2022-09-13T06:03:06.091Z,21.93
2022-09-13T06:05:40.562Z,22.11
2022-09-13T06:08:33.306Z,22.23
2022-09-13T06:11:08.450Z,22.25
2022-09-13T06:13:50.194Z,22.27
2022-09-13T06:16:24.210Z,22.20
2022-09-13T06:18:55.409Z,22.23
2022-09-13T06:21:28.268Z,22.41
2022-09-13T06:24:19.101Z,22.45
2022-09-13T06:26:49.099Z,22.43
2022-09-13T06:29:16.620Z,22.48
2022-09-13T06:31:47.395Z,22.41
2022-09-13T06:34:17.831Z,22.35
2022-09-13T06:36:49.185Z,22.51
2022-09-13T06:39:16.855Z,22.49
2022-09-13T06:41:47.496Z,22.52
2022-09-13T06:44:15.168Z,22.59
2022-09-13T06:46:45.895Z,22.39
2022-09-13T06:49:29.203Z,22.36
2022-09-13T06:51:59.256Z,22.48
2022-09-13T06:54:30.028Z,22.32
2022-09-13T06:57:03.663Z,22.39
2022-09-13T06:59:35.160Z,22.53
2022-09-13T07:02:03.235Z,22.28
2022-09-13T07:04:33.922Z,22.52
2022-09-13T07:07:04.082Z,22.61
2022-09-13T07:09:34.680Z,22.65
2022-09-13T07:12:08.939Z,22.57
2022-09-13T07:14:39.523Z,22.45
2022-09-13T07:17:09.872Z,22.44
2022-09-13T07:19:40.732Z,22.58
2022-09-13T07:22:08.397Z,22.57
2022-09-13T07:25:03.374Z,22.55
2022-09-13T07:27:31.263Z,22.49
2022-09-13T07:30:01.869Z,22.62
2022-09-13T07:32:35.016Z,22.41
2022-09-13T07:35:02.633Z,22.59
2022-09-13T07:37:34.365Z,22.68
2022-09-13T07:40:02.398Z,22.89
2022-09-13T07:42:32.399Z,22.93
2022-09-13T07:45:05.810Z,23.07
2022-09-13T07:47:53.994Z,23.18
2022-09-13T07:50:22.556Z,23.17
2022-09-13T07:52:56.052Z,23.44
2022-09-13T07:55:23.606Z,23.15
2022-09-13T07:57:54.206Z,23.16
2022-09-13T08:00:28.062Z,23.11
2022-09-13T08:02:58.776Z,23.54
2022-09-13T08:05:32.870Z,23.55
2022-09-13T08:08:03.816Z,23.60
2022-09-13T08:10:36.993Z,23.32
2022-09-13T08:13:07.669Z,23.47
2022-09-13T08:15:35.342Z,23.69
2022-09-13T08:18:05.918Z,23.50
2022-09-13T08:20:35.876Z,23.53
2022-09-13T08:23:03.208Z,23.76
2022-09-13T08:25:34.769Z,23.68
2022-09-13T08:28:02.880Z,23.89
2022-09-13T08:30:35.192Z,23.60
2022-09-13T08:33:06.157Z,23.43
2022-09-13T08:35:42.452Z,23.81
2022-09-13T08:38:15.950Z,23.87
2022-09-13T08:40:50.021Z,23.89
2022-09-13T08:43:37.011Z,24.45
2022-09-13T08:46:06.161Z,24.22
2022-09-13T08:48:35.003Z,24.43
2022-09-13T08:51:07.983Z,24.31
2022-09-13T08:53:44.217Z,24.30
2022-09-13T08:56:23.105Z,24.33
2022-09-13T08:58:57.245Z,24.31
2022-09-13T09:01:28.686Z,24.09
2022-09-13T09:04:02.157Z,24.15
2022-09-13T09:06:36.473Z,24.16
2022-09-13T09:09:08.188Z,24.26
2022-09-13T09:11:38.596Z,24.61
2022-09-13T09:14:10.534Z,24.79
2022-09-13T09:16:39.917Z,24.79
2022-09-13T09:19:12.122Z,25.16
2022-09-13T09:21:39.428Z,25.36
2022-09-13T09:24:09.564Z,25.14
2022-09-13T09:26:39.920Z,24.87
2022-09-13T09:29:16.429Z,25.17
2022-09-13T09:31:44.709Z,25.43
2022-09-13T09:34:42.685Z,25.20
2022-09-13T09:37:13.209Z,25.07
2022-09-13T09:39:41.032Z,24.99
2022-09-13T09:42:17.391Z,25.29
2022-09-13T09:44:49.736Z,25.30
2022-09-13T09:47:21.893Z,25.36
2022-09-13T09:50:10.337Z,25.31
2022-09-13T09:52:51.515Z,25.62
2022-09-13T09:55:26.758Z,25.90
2022-09-13T09:58:00.609Z,25.75
2022-09-13T10:00:32.491Z,26.13
2022-09-13T10:03:01.567Z,26.26
2022-09-13T10:05:32.916Z,26.47
2022-09-13T10:08:05.377Z,26.23
2022-09-13T10:10:38.651Z,26.36
2022-09-13T10:13:09.953Z,26.47
2022-09-13T10:15:37.543Z,26.70
2022-09-13T10:18:16.832Z,26.10
2022-09-13T10:21:00.912Z,25.83
2022-09-13T10:23:34.379Z,26.15
2022-09-13T10:26:07.697Z,26.18
2022-09-13T10:28:36.712Z,26.36
2022-09-13T10:31:13.735Z,26.87
2022-09-13T10:33:58.849Z,26.45
2022-09-13T10:36:51.164Z,26.43
2022-09-13T10:39:18.325Z,26.69
2022-09-13T10:41:57.312Z,26.80
2022-09-13T10:44:30.545Z,26.68
2022-09-13T10:46:58.877Z,26.20
2022-09-13T10:49:46.869Z,26.32
2022-09-13T10:52:29.696Z,26.68
2022-09-13T10:55:19.565Z,27.25
2022-09-13T10:57:53.932Z,27.32
2022-09-13T11:00:47.083Z,27.34
2022-09-13T11:03:23.967Z,27.40
2022-09-13T11:06:10.473Z,27.68
2022-09-13T11:08:55.646Z,27.97
2022-09-13T11:11:41.952Z,27.45
2022-09-13T11:14:18.626Z,27.88
2022-09-13T11:16:55.610Z,28.23
2022-09-13T11:19:41.706Z,28.98
2022-09-13T11:22:12.040Z,29.81
2022-09-13T11:24:58.370Z,30.43
2022-09-13T11:27:49.336Z,30.94
2022-09-13T11:30:20.701Z,31.96
2022-09-13T11:33:19.857Z,31.88
2022-09-13T11:35:49.932Z,32.51
2022-09-13T11:38:36.814Z,31.87
2022-09-13T11:41:06.628Z,32.95
2022-09-13T11:43:43.345Z,34.18
2022-09-13T11:46:29.111Z,34.01
2022-09-13T11:49:04.747Z,35.01
2022-09-13T11:51:35.546Z,34.86
2022-09-13T11:54:21.597Z,35.90
2022-09-13T11:57:00.238Z,35.08
2022-09-13T11:59:34.765Z,34.67
2022-09-13T12:02:07.062Z,36.41
2022-09-13T12:04:38.497Z,36.12
2022-09-13T12:07:19.708Z,36.14
2022-09-13T12:09:51.987Z,36.90
2022-09-13T12:12:26.218Z,36.88
2022-09-13T12:14:58.453Z,36.64
2022-09-13T12:17:27.685Z,37.65
2022-09-13T12:19:58.507Z,37.64
2022-09-13T12:22:30.724Z,37.76
2022-09-13T12:25:01.483Z,38.26
2022-09-13T12:27:39.622Z,35.62
2022-09-13T12:30:10.220Z,35.40
2022-09-13T12:32:38.225Z,36.37
2022-09-13T12:35:09.306Z,37.44
2022-09-13T12:37:45.646Z,35.84
2022-09-13T12:40:28.496Z,35.61
2022-09-13T12:43:14.615Z,35.82
2022-09-13T12:45:44.731Z,37.01
2022-09-13T12:48:18.482Z,37.22
2022-09-13T12:50:49.110Z,36.48
2022-09-13T12:53:23.676Z,35.19
2022-09-13T12:55:57.200Z,35.53
2022-09-13T12:58:27.689Z,36.04
2022-09-13T13:01:05.943Z,36.42
2022-09-13T13:03:38.319Z,35.65
2022-09-13T13:06:22.622Z,36.09
2022-09-13T13:08:55.613Z,35.67
2022-09-13T13:11:27.176Z,36.20
2022-09-13T13:14:09.596Z,36.21
2022-09-13T13:16:38.141Z,36.37
2022-09-13T13:19:26.276Z,36.09
2022-09-13T13:21:56.619Z,36.59
2022-09-13T13:24:25.019Z,36.79
2022-09-13T13:26:59.045Z,36.06
2022-09-13T13:29:31.101Z,34.98
2022-09-13T13:32:04.050Z,34.98
2022-09-13T13:34:34.459Z,35.47
2022-09-13T13:37:22.698Z,35.05
2022-09-13T13:39:52.750Z,34.57
2022-09-13T13:42:27.386Z,33.00
2022-09-13T13:44:57.750Z,31.73
2022-09-13T13:47:32.950Z,31.34
2022-09-13T13:50:03.106Z,31.05
2022-09-13T13:52:55.838Z,30.03
2022-09-13T13:55:23.333Z,30.25
2022-09-13T13:57:53.083Z,30.00
2022-09-13T14:00:24.334Z,29.78
2022-09-13T14:02:54.696Z,29.54
2022-09-13T14:05:41.327Z,28.90
2022-09-13T14:08:11.938Z,29.13
2022-09-13T14:10:41.797Z,29.14
2022-09-13T14:13:18.437Z,29.46
2022-09-13T14:15:51.183Z,29.22
2022-09-13T14:18:31.446Z,29.22
2022-09-13T14:21:03.902Z,29.10
2022-09-13T14:23:32.215Z,29.15
2022-09-13T14:26:04.454Z,29.14
2022-09-13T14:28:36.160Z,29.34
2022-09-13T14:31:06.499Z,29.21
2022-09-13T14:33:35.155Z,29.08
2022-09-13T14:36:04.370Z,29.11
2022-09-13T14:38:38.205Z,29.03
2022-09-13T14:41:13.883Z,29.07
2022-09-13T14:43:41.264Z,28.90
2022-09-13T14:46:29.176Z,28.93
2022-09-13T14:49:03.129Z,28.83
2022-09-13T14:51:34.736Z,28.64
2022-09-13T14:54:07.738Z,28.75
2022-09-13T14:56:44.022Z,28.66
2022-09-13T14:59:16.159Z,28.62
2022-09-13T15:01:43.738Z,28.57
2022-09-13T15:04:11.413Z,28.41
2022-09-13T15:06:39.737Z,28.36
2022-09-13T15:09:12.691Z,28.30
2022-09-13T15:11:55.716Z,28.26
2022-09-13T15:14:26.376Z,28.33
2022-09-13T15:17:02.999Z,28.34
2022-09-13T15:19:33.836Z,28.15
2022-09-13T15:22:04.611Z,28.10
2022-09-13T15:24:39.475Z,27.92
2022-09-13T15:27:17.459Z,28.04
2022-09-13T15:30:06.255Z,28.01
2022-09-13T15:32:35.378Z,27.80
2022-09-13T15:35:19.274Z,27.59
2022-09-13T15:38:00.665Z,27.45
2022-09-13T15:40:31.878Z,27.35
2022-09-13T15:43:00.667Z,27.20
2022-09-13T15:45:28.198Z,27.01
2022-09-13T15:48:18.840Z,27.04
2022-09-13T15:50:51.838Z,27.09
2022-09-13T15:53:19.452Z,27.05
2022-09-13T15:55:49.684Z,27.05
2022-09-13T15:58:20.971Z,27.05
2022-09-13T16:00:48.553Z,26.98
2022-09-13T16:03:18.486Z,26.95
2022-09-13T16:06:09.481Z,26.90
2022-09-13T16:08:38.083Z,26.82
2022-09-13T16:11:05.973Z,26.86
2022-09-13T16:13:33.664Z,26.87
2022-09-13T16:16:05.277Z,26.83
2022-09-13T16:18:36.157Z,26.59
2022-09-13T16:21:06.516Z,26.51
2022-09-13T16:23:37.046Z,26.27
2022-09-13T16:26:07.210Z,26.42
2022-09-13T16:28:37.838Z,26.48
2022-09-13T16:31:08.063Z,26.46
2022-09-13T16:33:41.910Z,26.42
2022-09-13T16:36:13.163Z,26.32
2022-09-13T16:38:44.233Z,26.28
2022-09-13T16:41:32.764Z,26.34
2022-09-13T16:44:02.358Z,26.37
2022-09-13T16:46:31.079Z,26.41
2022-09-13T16:49:01.226Z,26.41
2022-09-13T16:51:32.114Z,26.44
2022-09-13T16:54:00.637Z,26.48
2022-09-13T16:56:28.235Z,26.38
2022-09-13T16:58:56.004Z,26.59
2022-09-13T17:01:26.727Z,26.57
2022-09-13T17:03:55.629Z,26.48
2022-09-13T17:06:23.583Z,26.41
2022-09-13T17:08:56.046Z,26.40
2022-09-13T17:11:24.491Z,26.41
2022-09-13T17:13:54.769Z,26.49
2022-09-13T17:16:25.604Z,26.34
2022-09-13T17:18:53.313Z,26.46
2022-09-13T17:21:23.616Z,26.31
2022-09-13T17:23:53.596Z,26.51
2022-09-13T17:26:21.802Z,26.51
2022-09-13T17:28:53.712Z,26.60
2022-09-13T17:31:46.945Z,26.31
2022-09-13T17:34:21.340Z,26.27
2022-09-13T17:36:53.492Z,26.26
2022-09-13T17:39:26.864Z,26.15
2022-09-13T17:41:58.392Z,26.29
2022-09-13T17:44:32.220Z,26.42
2022-09-13T17:47:03.370Z,26.32
2022-09-13T17:49:34.012Z,26.28
2022-09-13T17:52:24.838Z,26.30
2022-09-13T17:54:57.960Z,26.25
2022-09-13T17:57:25.529Z,26.29
2022-09-13T18:00:02.073Z,26.10
2022-09-13T18:02:37.283Z,26.08
2022-09-13T18:05:13.732Z,26.03
2022-09-13T18:07:49.527Z,25.73
2022-09-13T18:10:40.671Z,25.72
2022-09-13T18:13:14.081Z,25.86
2022-09-13T18:15:47.007Z,25.87
2022-09-13T18:18:15.537Z,25.90
2022-09-13T18:20:48.614Z,25.81
2022-09-13T18:23:22.344Z,25.76
2022-09-13T18:26:00.481Z,25.81
2022-09-13T18:28:33.486Z,25.62
2022-09-13T18:31:10.855Z,25.57
2022-09-13T18:33:42.831Z,25.72
2022-09-13T18:36:17.276Z,25.60
2022-09-13T18:38:47.806Z,25.69
2022-09-13T18:41:22.670Z,25.84
2022-09-13T18:44:01.128Z,25.62
2022-09-13T18:46:37.671Z,25.59
2022-09-13T18:49:09.333Z,25.56
2022-09-13T18:51:43.457Z,25.61
2022-09-13T18:54:15.773Z,25.58
2022-09-13T18:56:48.517Z,25.65
2022-09-13T18:59:17.356Z,25.75
2022-09-13T19:01:49.116Z,25.79
2022-09-13T19:04:20.368Z,25.74
2022-09-13T19:06:52.269Z,25.60
2022-09-13T19:09:21.190Z,25.61
2022-09-13T19:11:52.615Z,25.57
2022-09-13T19:14:24.458Z,25.71
2022-09-13T19:16:52.609Z,25.52
2022-09-13T19:19:22.593Z,25.39
2022-09-13T19:21:50.690Z,25.56
2022-09-13T19:24:25.709Z,25.23
2022-09-13T19:27:01.783Z,25.04
2022-09-13T19:29:37.965Z,25.00
2022-09-13T19:32:10.281Z,25.12
2022-09-13T19:34:41.522Z,25.33
2022-09-13T19:37:14.687Z,25.38
2022-09-13T19:39:51.234Z,25.49
2022-09-13T19:42:21.485Z,25.60
2022-09-13T19:44:52.014Z,25.54
2022-09-13T19:48:25.427Z,25.53
2022-09-13T19:50:42.258Z,25.53
2022-09-13T19:53:13.243Z,25.52
2022-09-13T19:55:50.303Z,25.59
2022-09-13T19:58:24.134Z,25.59
2022-09-13T20:01:03.716Z,25.67
2022-09-13T20:03:37.540Z,25.68
2022-09-13T20:06:12.096Z,25.68
2022-09-13T20:08:40.760Z,25.64
2022-09-13T20:11:16.237Z,25.61
2022-09-13T20:13:48.223Z,25.69
2022-09-13T20:16:20.666Z,25.31
2022-09-13T20:18:50.971Z,24.98
2022-09-13T20:21:21.903Z,24.82
2022-09-13T20:23:58.874Z,24.52
2022-09-13T20:26:29.701Z,24.42
2022-09-13T20:29:02.191Z,24.46
2022-09-13T20:31:33.522Z,24.57
2022-09-13T20:34:09.001Z,24.86
2022-09-13T20:36:44.338Z,24.63
2022-09-13T20:39:15.543Z,24.86
2022-09-13T20:41:46.709Z,25.02
2022-09-13T20:44:19.733Z,24.94
2022-09-13T20:46:47.161Z,24.86
2022-09-13T20:49:17.547Z,25.01
2022-09-13T20:51:46.347Z,24.88
2022-09-13T20:54:16.871Z,25.15
2022-09-13T20:57:06.901Z,25.19
2022-09-13T20:59:43.533Z,25.00
2022-09-13T21:02:14.207Z,25.17
2022-09-13T21:04:45.291Z,25.30
2022-09-13T21:07:34.795Z,25.04
2022-09-13T21:10:05.099Z,25.00
2022-09-13T21:12:33.258Z,24.90
2022-09-13T21:15:01.079Z,24.76
2022-09-13T21:17:54.118Z,24.72
2022-09-13T21:20:24.537Z,24.98
2022-09-13T21:23:02.511Z,24.82
2022-09-13T21:25:36.734Z,24.99
2022-09-13T21:28:10.163Z,24.94
2022-09-13T21:31:00.071Z,24.77
2022-09-13T21:33:28.475Z,24.80
2022-09-13T21:36:01.794Z,24.79
2022-09-13T21:38:32.682Z,24.95
2022-09-13T21:41:08.314Z,24.79
2022-09-13T21:43:39.841Z,24.98
2022-09-13T21:46:15.754Z,25.02
2022-09-13T21:48:48.264Z,24.88
2022-09-13T21:51:22.762Z,24.54
2022-09-13T21:53:57.767Z,24.73
2022-09-13T21:56:47.022Z,24.84
2022-09-13T21:59:22.261Z,24.77
2022-09-13T22:01:52.910Z,24.71
2022-09-13T22:04:25.105Z,24.58
2022-09-13T22:06:53.889Z,24.64
2022-09-13T22:09:27.140Z,24.87
2022-09-13T22:12:00.635Z,24.97
2022-09-13T22:14:28.537Z,24.94
2022-09-13T22:17:00.850Z,24.88
2022-09-13T22:19:33.450Z,24.78
2022-09-13T22:22:04.050Z,24.98
2022-09-13T22:24:37.001Z,24.91
2022-09-13T22:27:09.729Z,25.07
2022-09-13T22:29:47.695Z,24.81
2022-09-13T22:35:09.754Z,24.46
2022-09-13T22:37:59.523Z,24.64
2022-09-13T22:40:32.357Z,24.61
2022-09-13T22:43:22.219Z,24.58
2022-09-13T22:45:56.039Z,24.73
2022-09-13T22:48:46.723Z,24.60
2022-09-13T22:51:16.634Z,24.75
2022-09-13T22:53:47.629Z,24.64
2022-09-13T22:56:19.475Z,24.76
2022-09-13T22:58:53.713Z,24.88
2022-09-13T23:01:24.098Z,24.71
2022-09-13T23:03:54.675Z,24.89
2022-09-13T23:06:22.608Z,24.80
2022-09-13T23:08:57.230Z,24.63
2022-09-13T23:11:29.977Z,24.52
2022-09-13T23:14:05.620Z,24.72
2022-09-13T23:16:40.068Z,24.73
2022-09-13T23:19:11.517Z,24.48
2022-09-13T23:21:39.706Z,24.59
2022-09-13T23:24:10.634Z,24.71
2022-09-13T23:26:39.312Z,24.49
2022-09-13T23:29:09.575Z,24.28
2022-09-13T23:32:05.574Z,24.40
2022-09-13T23:37:21.069Z,24.69
2022-09-13T23:39:58.508Z,24.79
2022-09-13T23:42:29.215Z,24.84
2022-09-13T23:45:00.471Z,24.86
2022-09-13T23:47:32.166Z,24.86
2022-09-13T23:50:00.093Z,24.71
2022-09-13T23:52:33.025Z,24.79
2022-09-13T23:55:04.378Z,24.76
2022-09-13T23:57:37.548Z,24.83
